Time;durP1;ratioP1;P1;durP2;ratioP2;P2;SDS_P1;SDS_P2;PMS_P1;PMS_P2;Temp;Humidity;BMP_temperature;BMP_pressure;BME280_temperature;BME280_humidity;BME280_pressure;Samples;Min_cycle;Max_cycle;Signal;HPM_P1;HPM_P2
2022/03/26 00:01:42;;;;;;;111.57;50.50;;;7.60;99.90;;;;;;5052907;28;20040;-79
2022/03/26 00:04:07;;;;;;;113.83;50.83;;;7.60;99.90;;;;;;5052543;28;20052;-79
2022/03/26 00:06:33;;;;;;;102.63;49.67;;;7.60;99.90;;;;;;5052639;28;20341;-79
2022/03/26 00:08:59;;;;;;;112.05;50.83;;;7.50;99.90;;;;;;5052271;28;20040;-79
2022/03/26 00:11:25;;;;;;;115.00;51.80;;;7.50;99.90;;;;;;5052493;28;20563;-79
2022/03/26 00:13:50;;;;;;;112.07;52.07;;;7.50;99.90;;;;;;5052424;28;20059;-79
2022/03/26 00:16:16;;;;;;;116.17;52.27;;;7.50;99.90;;;;;;5052930;28;20286;-78
2022/03/26 00:18:42;;;;;;;114.82;51.83;;;7.50;99.90;;;;;;5039380;28;20102;-79
2022/03/26 00:21:08;;;;;;;116.40;52.17;;;7.50;99.90;;;;;;5053031;28;20586;-78
2022/03/26 00:23:34;;;;;;;121.65;55.63;;;7.60;99.90;;;;;;5052992;28;20052;-79
2022/03/26 00:26:00;;;;;;;117.10;55.10;;;7.50;99.90;;;;;;5052704;28;20049;-79
2022/03/26 00:28:26;;;;;;;117.05;53.33;;;7.50;99.90;;;;;;5054137;28;20359;-78
2022/03/26 00:30:53;;;;;;;117.15;53.40;;;7.50;99.90;;;;;;5036633;28;20146;-79
2022/03/26 00:33:19;;;;;;;122.95;54.15;;;7.50;99.90;;;;;;5036644;28;20056;-78
2022/03/26 00:35:46;;;;;;;116.75;54.05;;;7.50;99.90;;;;;;5036706;28;20505;-78
2022/03/26 00:38:12;;;;;;;120.75;53.17;;;7.50;99.90;;;;;;5053215;28;20052;-78
2022/03/26 00:40:38;;;;;;;118.85;53.65;;;7.50;99.90;;;;;;5052935;28;20080;-79
2022/03/26 00:43:04;;;;;;;121.80;53.38;;;7.40;99.90;;;;;;5052840;28;21138;-79
2022/03/26 00:45:30;;;;;;;108.27;49.93;;;7.40;99.90;;;;;;5052603;28;20076;-79
2022/03/26 00:48:02;;;;;;;96.28;44.13;;;7.30;99.90;;;;;;5052462;28;20310;-79
2022/03/26 00:50:28;;;;;;;92.45;43.38;;;7.30;99.90;;;;;;5052581;28;20367;-79
2022/03/26 00:52:54;;;;;;;90.57;42.00;;;7.20;99.90;;;;;;5052245;28;20120;-79
2022/03/26 00:55:19;;;;;;;97.28;43.75;;;7.10;99.90;;;;;;5036078;28;20066;-79
2022/03/26 00:57:45;;;;;;;101.70;45.72;;;6.90;99.90;;;;;;5052609;28;20049;-78
2022/03/26 01:00:12;;;;;;;103.85;47.90;;;6.80;99.90;;;;;;5019398;28;20049;-79
2022/03/26 01:02:38;;;;;;;;;;;6.70;99.90;;;;;;5052766;28;20060;-78
2022/03/26 01:05:04;;;;;;;106.88;49.42;;;6.60;99.90;;;;;;5052220;28;19917;-78
2022/03/26 01:07:31;;;;;;;107.95;49.92;;;6.60;99.90;;;;;;5052004;28;20037;-78
2022/03/26 01:09:57;;;;;;;116.80;51.10;;;6.50;99.90;;;;;;5052376;28;20476;-78
2022/03/26 01:12:25;;;;;;;114.47;49.78;;;6.60;99.90;;;;;;5053700;28;20063;-78
2022/03/26 01:14:52;;;;;;;109.53;49.03;;;6.50;99.90;;;;;;5052646;28;20423;-78
2022/03/26 01:17:19;;;;;;;102.13;47.90;;;6.50;99.90;;;;;;5036054;28;20531;-79
2022/03/26 01:19:45;;;;;;;111.13;48.58;;;6.50;99.90;;;;;;5052214;28;20107;-78
2022/03/26 01:22:11;;;;;;;107.10;48.58;;;6.50;99.90;;;;;;5038291;28;20064;-78
2022/03/26 01:24:37;;;;;;;113.97;50.47;;;6.40;99.90;;;;;;5055068;28;20048;-78
2022/03/26 01:27:03;;;;;;;118.38;53.22;;;6.50;99.90;;;;;;5055055;28;20076;-78
2022/03/26 01:29:29;;;;;;;125.70;54.67;;;6.40;99.90;;;;;;5037441;28;20068;-79
2022/03/26 01:31:55;;;;;;;122.57;53.60;;;6.50;99.90;;;;;;5054789;28;20044;-79
2022/03/26 01:34:24;;;;;;;122.68;53.75;;;6.40;99.90;;;;;;5055284;28;20333;-79
2022/03/26 01:36:50;;;;;;;131.45;54.15;;;6.40;99.90;;;;;;5055275;28;20048;-78
2022/03/26 01:39:17;;;;;;;124.45;55.53;;;6.40;99.90;;;;;;5054892;28;20066;-78
2022/03/26 01:41:43;;;;;;;131.55;55.60;;;6.40;99.90;;;;;;5055148;28;20438;-78
2022/03/26 01:44:15;;;;;;;125.35;55.25;;;6.60;99.90;;;;;;5054791;28;20044;-78
2022/03/26 01:46:45;;;;;;;127.43;56.33;;;6.50;99.90;;;;;;5054700;28;20051;-78
2022/03/26 01:49:10;;;;;;;124.90;54.35;;;6.40;99.90;;;;;;5054546;28;20072;-78
2022/03/26 01:51:36;;;;;;;132.30;57.50;;;6.40;99.90;;;;;;5054765;28;20521;-79
2022/03/26 01:54:02;;;;;;;140.43;61.13;;;6.40;99.90;;;;;;5054632;28;20399;-79
2022/03/26 01:56:28;;;;;;;155.30;66.25;;;6.40;99.90;;;;;;5054633;28;20055;-78
2022/03/26 01:58:53;;;;;;;160.13;68.93;;;6.40;99.90;;;;;;5038201;28;20470;-78
2022/03/26 02:01:19;;;;;;;162.13;67.50;;;6.40;99.90;;;;;;5054492;28;20788;-78
2022/03/26 02:03:45;;;;;;;159.07;67.70;;;6.30;99.90;;;;;;5054407;28;20044;-78
2022/03/26 02:06:11;;;;;;;151.00;65.57;;;6.40;99.90;;;;;;5037846;28;20040;-79
2022/03/26 02:08:37;;;;;;;114.32;51.22;;;6.40;99.90;;;;;;5072471;28;20045;-78
2022/03/26 02:11:03;;;;;;;91.00;42.33;;;6.30;99.90;;;;;;5054359;28;20094;-78
2022/03/26 02:13:52;;;;;;;89.18;41.20;;;6.20;99.90;;;;;;5054600;28;20051;-79
2022/03/26 02:16:18;;;;;;;74.22;36.45;;;6.00;99.90;;;;;;5054395;28;20518;-77
2022/03/26 02:18:44;;;;;;;82.88;37.92;;;5.90;99.90;;;;;;5054022;28;20045;-78
2022/03/26 02:21:10;;;;;;;81.75;36.05;;;5.80;99.90;;;;;;5071625;28;20056;-78
2022/03/26 02:23:36;;;;;;;79.80;36.97;;;5.80;99.90;;;;;;5054631;28;20041;-78
2022/03/26 02:26:01;;;;;;;75.10;36.23;;;5.60;99.90;;;;;;5037408;28;20047;-78
2022/03/26 02:28:27;;;;;;;86.80;39.53;;;5.60;99.90;;;;;;5054118;28;20044;-79
2022/03/26 02:30:53;;;;;;;83.72;38.65;;;5.70;99.90;;;;;;5054195;28;20048;-78
2022/03/26 02:33:19;;;;;;;98.97;44.27;;;5.50;99.90;;;;;;5053910;28;20542;-78
2022/03/26 02:35:44;;;;;;;102.85;45.55;;;5.40;99.90;;;;;;5053953;28;20424;-78
2022/03/26 02:38:10;;;;;;;117.50;47.87;;;5.40;99.90;;;;;;5053820;28;20080;-78
2022/03/26 02:40:36;;;;;;;106.87;48.77;;;5.40;99.90;;;;;;5053762;28;20044;-79
2022/03/26 02:43:02;;;;;;;113.10;50.07;;;5.30;99.90;;;;;;5037219;28;20048;-78
2022/03/26 02:45:29;;;;;;;119.13;52.65;;;5.40;99.90;;;;;;5053814;28;20557;-78
2022/03/26 02:47:56;;;;;;;126.60;52.90;;;5.40;99.90;;;;;;5053715;28;20048;-78
2022/03/26 02:50:22;;;;;;;;;;;5.30;99.90;;;;;;5054052;28;20177;-78
2022/03/26 02:52:50;;;;;;;120.82;51.17;;;5.30;99.90;;;;;;5053568;28;20382;-79
2022/03/26 02:55:17;;;;;;;109.97;50.28;;;5.30;99.90;;;;;;5053242;28;20136;-79
2022/03/26 02:57:46;;;;;;;;;;;5.50;99.90;;;;;;5054170;28;20059;-77
2022/03/26 03:00:13;;;;;;;124.13;51.78;;;5.20;99.90;;;;;;5053273;28;19916;-78
2022/03/26 03:02:41;;;;;;;125.35;52.72;;;5.30;99.90;;;;;;5053570;28;20048;-79
2022/03/26 03:05:07;;;;;;;122.28;50.58;;;5.30;99.90;;;;;;5071020;28;20033;-79
2022/03/26 03:07:32;;;;;;;119.80;50.85;;;5.30;99.90;;;;;;5053291;28;20045;-78
2022/03/26 03:09:58;;;;;;;124.63;50.97;;;5.30;99.90;;;;;;5053228;28;20045;-79
2022/03/26 03:12:28;;;;;;;124.75;51.45;;;5.30;99.90;;;;;;5053630;28;20072;-79
2022/03/26 03:14:54;;;;;;;117.57;48.97;;;5.30;99.90;;;;;;5053412;28;20501;-78
2022/03/26 03:17:20;;;;;;;117.43;50.25;;;5.30;99.90;;;;;;5052800;28;20131;-78
2022/03/26 03:19:46;;;;;;;132.35;55.38;;;5.30;99.90;;;;;;5052933;28;20083;-78
2022/03/26 03:22:12;;;;;;;139.23;57.20;;;5.30;99.90;;;;;;5049295;28;20063;-78
2022/03/26 03:24:37;;;;;;;145.20;57.38;;;5.20;99.90;;;;;;5050017;28;20084;-79
2022/03/26 03:27:04;;;;;;;144.00;59.60;;;5.20;99.90;;;;;;5050388;28;20041;-78
2022/03/26 03:29:30;;;;;;;145.80;61.35;;;5.20;99.90;;;;;;5049391;28;20325;-78
2022/03/26 03:31:56;;;;;;;149.55;59.60;;;5.10;99.90;;;;;;5033089;28;20450;-78
2022/03/26 03:34:23;;;;;;;138.65;56.10;;;5.10;99.90;;;;;;5049398;28;20037;-78
2022/03/26 03:36:48;;;;;;;132.43;53.05;;;5.00;99.90;;;;;;5049393;28;20052;-78
2022/03/26 03:39:14;;;;;;;136.27;55.22;;;5.10;99.90;;;;;;5049102;28;20075;-78
2022/03/26 03:41:40;;;;;;;138.50;56.87;;;5.00;99.90;;;;;;5049164;28;20048;-77
2022/03/26 03:44:06;;;;;;;135.68;56.97;;;4.90;99.90;;;;;;5049330;28;20049;-78
2022/03/26 03:46:33;;;;;;;137.50;57.47;;;4.90;99.90;;;;;;5049330;28;20458;-79
2022/03/26 03:48:59;;;;;;;;;;;4.90;99.90;;;;;;5050116;28;20037;-79
2022/03/26 03:51:25;;;;;;;145.10;58.88;;;4.90;99.90;;;;;;5048745;28;19917;-79
2022/03/26 03:53:51;;;;;;;129.77;54.75;;;4.60;99.90;;;;;;5049188;28;20044;-78
2022/03/26 03:56:17;;;;;;;138.57;56.37;;;4.60;99.90;;;;;;5049093;28;20121;-78
2022/03/26 03:58:42;;;;;;;138.60;57.63;;;4.60;99.90;;;;;;5032457;28;20924;-78
2022/03/26 04:01:08;;;;;;;141.13;60.07;;;4.60;99.90;;;;;;5032528;28;20131;-78
2022/03/26 04:03:34;;;;;;;158.63;64.03;;;4.70;99.90;;;;;;5049449;28;20043;-79
2022/03/26 04:05:59;;;;;;;153.33;64.93;;;4.70;99.90;;;;;;5032900;28;20040;-79
2022/03/26 04:08:25;;;;;;;165.67;66.03;;;4.70;99.90;;;;;;5049052;28;20488;-78
2022/03/26 04:10:51;;;;;;;165.32;65.60;;;4.80;99.90;;;;;;5049262;28;20111;-79
2022/03/26 04:13:16;;;;;;;161.97;65.87;;;4.80;99.90;;;;;;5048840;28;20052;-79
2022/03/26 04:15:42;;;;;;;165.07;68.90;;;4.90;99.90;;;;;;5049060;28;20303;-78
2022/03/26 04:18:08;;;;;;;181.93;70.77;;;4.90;99.90;;;;;;5048884;28;20507;-77
2022/03/26 04:20:35;;;;;;;181.47;72.87;;;5.00;99.90;;;;;;5034047;28;20459;-78
2022/03/26 04:23:00;;;;;;;178.32;71.10;;;5.00;99.90;;;;;;5052689;28;20080;-78
2022/03/26 04:25:26;;;;;;;178.73;70.60;;;5.90;99.90;;;;;;5036196;28;20080;-78
2022/03/26 04:27:52;;;;;;;162.50;67.97;;;5.10;99.90;;;;;;5052129;28;20307;-77
2022/03/26 04:30:18;;;;;;;163.80;67.38;;;5.10;99.90;;;;;;5051942;28;20045;-78
2022/03/26 04:32:44;;;;;;;549.35;80.93;;;5.10;99.90;;;;;;5069949;28;20530;-79
2022/03/26 04:35:10;;;;;;;619.00;72.23;;;5.10;99.90;;;;;;5051882;28;20052;-78
2022/03/26 04:37:37;;;;;;;495.30;52.88;;;5.20;99.90;;;;;;5052013;28;20047;-78
2022/03/26 04:40:05;;;;;;;742.13;62.70;;;4.90;99.90;;;;;;5051929;28;20052;-78
2022/03/26 04:42:30;;;;;;;430.58;52.65;;;4.70;99.90;;;;;;5051833;28;20045;-78
2022/03/26 04:44:56;;;;;;;426.70;51.03;;;4.80;99.90;;;;;;5052409;28;20041;-78
2022/03/26 04:47:22;;;;;;;96.93;42.77;;;4.70;99.90;;;;;;5035294;28;20047;-78
2022/03/26 04:49:48;;;;;;;92.03;42.67;;;4.20;99.90;;;;;;5070007;28;20311;-78
2022/03/26 04:52:13;;;;;;;94.15;39.42;;;4.20;99.90;;;;;;5019046;28;20045;-78
2022/03/26 04:54:41;;;;;;;98.78;42.13;;;4.10;99.90;;;;;;5052147;28;20071;-79
2022/03/26 04:57:07;;;;;;;139.25;45.00;;;4.10;99.90;;;;;;5052047;28;20049;-78
2022/03/26 04:59:33;;;;;;;129.68;46.15;;;4.00;99.90;;;;;;5052384;28;20098;-78
2022/03/26 05:01:58;;;;;;;101.15;45.03;;;4.00;99.90;;;;;;5035320;28;20044;-79
2022/03/26 05:04:24;;;;;;;95.67;43.07;;;4.00;99.90;;;;;;5053270;28;20044;-78
2022/03/26 05:06:50;;;;;;;175.77;48.03;;;4.00;99.90;;;;;;5022790;28;20040;-79
2022/03/26 05:09:15;;;;;;;187.57;50.87;;;4.00;99.90;;;;;;5055507;28;20047;-78
2022/03/26 05:11:42;;;;;;;97.50;46.47;;;3.90;99.90;;;;;;5038764;28;20281;-79
2022/03/26 05:14:08;;;;;;;320.40;52.72;;;4.00;99.90;;;;;;5055795;28;20049;-79
2022/03/26 05:16:33;;;;;;;159.00;47.47;;;4.00;99.90;;;;;;5055807;28;20048;-78
2022/03/26 05:18:59;;;;;;;191.35;55.85;;;4.00;99.90;;;;;;5073496;28;20052;-78
2022/03/26 05:21:25;;;;;;;188.93;51.85;;;4.10;99.90;;;;;;5051720;28;20053;-79
2022/03/26 05:23:51;;;;;;;330.95;57.33;;;4.10;99.90;;;;;;5052048;28;20044;-78
2022/03/26 05:26:18;;;;;;;363.07;54.50;;;4.10;99.90;;;;;;5051481;28;20091;-78
2022/03/26 05:28:45;;;;;;;258.00;52.47;;;4.10;99.90;;;;;;5051932;28;20276;-78
2022/03/26 05:31:10;;;;;;;427.55;56.35;;;4.10;99.90;;;;;;5051778;28;20053;-79
2022/03/26 05:33:37;;;;;;;578.93;60.97;;;4.10;99.90;;;;;;5051852;28;20036;-79
2022/03/26 05:36:04;;;;;;;704.15;67.68;;;4.20;99.90;;;;;;5052332;28;20388;-79
2022/03/26 05:38:31;;;;;;;461.67;58.97;;;4.10;99.90;;;;;;5051504;28;20040;-78
2022/03/26 05:40:57;;;;;;;;;;;4.10;99.90;;;;;;5052103;28;20041;-77
2022/03/26 05:43:24;;;;;;;422.75;50.13;;;4.10;99.90;;;;;;5051542;28;19962;-78
2022/03/26 05:45:51;;;;;;;566.22;55.35;;;4.30;99.90;;;;;;5051709;28;20076;-79
2022/03/26 05:48:17;;;;;;;327.50;45.78;;;4.10;99.90;;;;;;5051649;28;20400;-78
2022/03/26 05:50:44;;;;;;;434.23;49.13;;;4.00;99.90;;;;;;5035085;28;20067;-78
2022/03/26 05:53:11;;;;;;;96.60;38.67;;;4.00;99.90;;;;;;5051242;28;20076;-78
2022/03/26 05:55:36;;;;;;;261.17;44.13;;;4.00;99.90;;;;;;5051598;28;20037;-78
2022/03/26 05:58:03;;;;;;;147.55;39.38;;;4.00;99.90;;;;;;5051666;28;20147;-78
2022/03/26 06:00:28;;;;;;;187.30;41.78;;;4.00;99.90;;;;;;5051090;28;20484;-79
2022/03/26 06:02:54;;;;;;;195.33;39.63;;;4.10;99.90;;;;;;5050944;28;20045;-78
2022/03/26 06:05:20;;;;;;;214.70;38.73;;;4.40;99.90;;;;;;5034181;28;20620;-78
2022/03/26 06:07:45;;;;;;;440.83;44.47;;;4.20;99.90;;;;;;5050730;28;20049;-79
2022/03/26 06:10:11;;;;;;;344.30;41.80;;;4.20;99.90;;;;;;5050817;28;20100;-77
2022/03/26 06:12:37;;;;;;;492.67;47.13;;;4.20;99.90;;;;;;5034425;28;20041;-78
2022/03/26 06:15:03;;;;;;;633.77;53.57;;;4.20;99.90;;;;;;5050581;28;20287;-78
2022/03/26 06:17:30;;;;;;;381.35;43.53;;;4.30;99.90;;;;;;5050648;28;20056;-78
2022/03/26 06:19:56;;;;;;;435.65;44.60;;;4.30;99.90;;;;;;5051335;28;20071;-78
2022/03/26 06:22:21;;;;;;;254.70;35.63;;;4.50;99.90;;;;;;5050344;28;20061;-78
2022/03/26 06:24:47;;;;;;;116.90;30.50;;;4.50;99.90;;;;;;5017741;28;20056;-78
2022/03/26 06:27:13;;;;;;;55.10;29.07;;;4.40;99.90;;;;;;5050487;28;20049;-78
2022/03/26 06:29:39;;;;;;;97.80;32.67;;;4.40;99.90;;;;;;5050870;28;20362;-79
2022/03/26 06:32:05;;;;;;;74.35;32.90;;;4.40;99.90;;;;;;5017809;28;20052;-79
2022/03/26 06:34:31;;;;;;;56.72;30.73;;;4.50;99.90;;;;;;5050283;28;20115;-79
2022/03/26 06:36:57;;;;;;;60.33;34.03;;;4.80;99.90;;;;;;5050625;28;20041;-79
2022/03/26 06:39:23;;;;;;;66.53;36.20;;;5.00;99.90;;;;;;5050354;28;20097;-79
2022/03/26 06:41:48;;;;;;;94.17;43.10;;;5.00;99.90;;;;;;5033914;28;20132;-79
2022/03/26 06:44:14;;;;;;;102.20;46.80;;;5.20;99.90;;;;;;5050206;28;20144;-78
2022/03/26 06:46:40;;;;;;;113.47;48.77;;;5.30;99.90;;;;;;5017466;28;20094;-78
2022/03/26 06:49:07;;;;;;;114.57;49.95;;;5.50;99.90;;;;;;5050545;28;20790;-78
2022/03/26 06:51:34;;;;;;;118.57;48.35;;;5.70;99.90;;;;;;5049926;28;20041;-78
2022/03/26 06:53:59;;;;;;;127.63;54.28;;;5.90;99.90;;;;;;5050268;28;20041;-78
2022/03/26 06:56:25;;;;;;;128.23;53.72;;;6.10;99.90;;;;;;5050037;28;20047;-79
2022/03/26 06:58:51;;;;;;;131.35;56.72;;;6.40;99.90;;;;;;5050441;28;20041;-79
2022/03/26 07:01:17;;;;;;;131.77;54.92;;;6.60;99.90;;;;;;5050393;28;20120;-79
2022/03/26 07:03:43;;;;;;;131.77;54.45;;;6.80;99.90;;;;;;5050184;28;20044;-78
2022/03/26 07:06:09;;;;;;;130.27;55.07;;;7.00;99.90;;;;;;5033603;28;20041;-78
2022/03/26 07:08:35;;;;;;;128.80;52.70;;;7.20;99.90;;;;;;5049651;28;20049;-79
2022/03/26 07:11:01;;;;;;;122.33;52.07;;;7.40;99.90;;;;;;5049979;28;20494;-79
2022/03/26 07:13:27;;;;;;;126.07;53.92;;;7.50;99.90;;;;;;5049957;28;20395;-79
2022/03/26 07:15:52;;;;;;;121.78;52.55;;;7.70;99.90;;;;;;5049750;28;20037;-78
2022/03/26 07:18:18;;;;;;;124.65;53.42;;;7.80;99.90;;;;;;5049833;28;20048;-79
2022/03/26 07:20:44;;;;;;;121.28;55.08;;;8.00;99.90;;;;;;5052897;28;20071;-78
2022/03/26 07:23:10;;;;;;;125.28;55.17;;;8.20;99.90;;;;;;5019995;28;20143;-79
2022/03/26 07:25:35;;;;;;;114.90;52.67;;;8.80;99.90;;;;;;5052693;28;20512;-78
2022/03/26 07:28:01;;;;;;;108.22;52.30;;;9.40;99.90;;;;;;5035697;28;20049;-79
2022/03/26 07:30:27;;;;;;;107.03;50.65;;;10.00;99.90;;;;;;5053056;28;20040;-79
2022/03/26 07:32:53;;;;;;;105.25;51.83;;;10.60;99.90;;;;;;5053142;28;20044;-79
2022/03/26 07:35:19;;;;;;;97.35;49.65;;;11.10;99.90;;;;;;5035885;28;20044;-79
2022/03/26 07:37:44;;;;;;;100.22;49.53;;;11.50;99.90;;;;;;5036187;28;20051;-79
2022/03/26 07:40:11;;;;;;;103.07;49.08;;;12.00;99.90;;;;;;5036353;28;20063;-79
2022/03/26 07:42:37;;;;;;;94.10;47.53;;;12.20;99.90;;;;;;5052664;28;20044;-79
2022/03/26 07:45:03;;;;;;;93.88;46.10;;;12.50;99.90;;;;;;5052893;28;20127;-79
2022/03/26 07:47:29;;;;;;;94.10;47.10;;;12.90;99.90;;;;;;5035911;28;20505;-79
2022/03/26 07:49:55;;;;;;;91.20;45.58;;;13.00;99.90;;;;;;5052636;28;20025;-79
2022/03/26 07:52:21;;;;;;;85.20;43.78;;;13.40;99.90;;;;;;5036157;28;20090;-79
2022/03/26 07:54:47;;;;;;;86.13;43.90;;;13.60;99.90;;;;;;5052977;28;20464;-79
2022/03/26 07:57:13;;;;;;;85.18;43.33;;;14.10;99.90;;;;;;5052725;28;20080;-79
2022/03/26 07:59:38;;;;;;;77.72;42.40;;;14.30;99.90;;;;;;5052047;28;20446;-79
2022/03/26 08:02:04;;;;;;;81.80;41.15;;;14.50;99.90;;;;;;5052701;28;20467;-79
2022/03/26 08:04:30;;;;;;;78.60;42.00;;;14.60;99.90;;;;;;5035822;28;20048;-79
2022/03/26 08:06:56;;;;;;;78.38;40.55;;;15.00;99.90;;;;;;5052609;28;20044;-79
2022/03/26 08:09:21;;;;;;;76.82;40.65;;;15.30;99.90;;;;;;5051979;28;20067;-79
2022/03/26 08:11:47;;;;;;;76.13;40.17;;;15.40;99.90;;;;;;5052552;28;20391;-79
2022/03/26 08:14:13;;;;;;;70.57;37.97;;;15.70;99.90;;;;;;5035938;28;20036;-78
2022/03/26 08:16:40;;;;;;;70.55;38.53;;;15.90;99.90;;;;;;5051792;28;20860;-79
2022/03/26 08:19:05;;;;;;;;;;;16.00;99.90;;;;;;5052603;28;20071;-78
2022/03/26 08:21:35;;;;;;;64.15;35.88;;;16.20;99.90;;;;;;5048109;28;19920;-79
2022/03/26 08:24:02;;;;;;;61.60;35.95;;;16.30;99.90;;;;;;5049129;28;20494;-79
2022/03/26 08:26:29;;;;;;;57.35;32.95;;;16.60;99.90;;;;;;5048702;28;20504;-79
2022/03/26 08:28:58;;;;;;;57.50;33.67;;;16.30;99.90;;;;;;5048774;28;20041;-79
2022/03/26 08:31:26;;;;;;;59.30;33.70;;;16.90;99.90;;;;;;5048692;28;20045;-79
2022/03/26 08:33:53;;;;;;;55.78;32.97;;;17.30;99.90;;;;;;5048785;28;20037;-79
2022/03/26 08:36:19;;;;;;;;;;;17.30;99.90;;;;;;5049869;28;20473;-79
2022/03/26 08:38:46;;;;;;;51.88;31.02;;;17.60;99.90;;;;;;5050432;28;19970;-79
2022/03/26 08:41:14;;;;;;;55.75;31.83;;;18.00;99.90;;;;;;5036471;28;20120;-79
2022/03/26 08:43:39;;;;;;;53.55;32.55;;;17.90;99.90;;;;;;5053640;28;20044;-79
2022/03/26 08:46:05;;;;;;;49.70;31.15;;;18.00;99.90;;;;;;5036514;28;20047;-79
2022/03/26 08:48:31;;;;;;;48.95;30.23;;;18.40;99.90;;;;;;5035836;28;20040;-79
2022/03/26 08:50:57;;;;;;;44.58;29.30;;;18.60;99.90;;;;;;5036355;28;20041;-79
2022/03/26 08:53:23;;;;;;;;;;;18.20;99.90;;;;;;5054256;28;20400;-79
2022/03/26 08:55:49;;;;;;;48.70;29.50;;;18.50;99.90;;;;;;5052624;28;19917;-78
2022/03/26 08:58:17;;;;;;;45.40;28.27;;;18.50;99.90;;;;;;5052842;28;20064;-78
2022/03/26 09:00:43;;;;;;;44.03;27.83;;;19.10;99.90;;;;;;5035651;28;20048;-79
2022/03/26 09:03:09;;;;;;;45.80;28.52;;;19.30;99.90;;;;;;5052598;28;20048;-79
2022/03/26 09:05:34;;;;;;;54.10;30.08;;;19.70;99.90;;;;;;5052303;28;20492;-78
2022/03/26 09:08:00;;;;;;;48.05;29.75;;;19.90;99.90;;;;;;5052456;28;20099;-78
2022/03/26 09:10:25;;;;;;;42.92;28.95;;;20.10;99.90;;;;;;5052150;28;20044;-79
2022/03/26 09:12:52;;;;;;;44.03;28.48;;;20.20;99.90;;;;;;5019378;28;20123;-78
2022/03/26 09:15:17;;;;;;;43.40;28.65;;;20.30;99.90;;;;;;5035713;28;20115;-78
2022/03/26 09:17:43;;;;;;;40.47;27.33;;;20.70;99.90;;;;;;5051826;28;20148;-78
2022/03/26 09:20:09;;;;;;;40.95;26.48;;;20.80;99.90;;;;;;5035678;28;20081;-78
2022/03/26 09:22:35;;;;;;;42.70;27.80;;;20.70;99.90;;;;;;5018349;28;20064;-78
2022/03/26 09:25:03;;;;;;;42.22;28.08;;;21.00;99.90;;;;;;5052236;28;20049;-78
2022/03/26 09:27:29;;;;;;;38.53;25.75;;;21.20;99.90;;;;;;5051917;28;20530;-78
2022/03/26 09:29:54;;;;;;;;;;;21.30;99.70;;;;;;5052200;28;20045;-78
2022/03/26 09:32:20;;;;;;;33.22;22.67;;;21.50;99.40;;;;;;5052319;28;19917;-78
2022/03/26 09:34:46;;;;;;;31.30;21.15;;;21.70;98.20;;;;;;5052911;28;20045;-78
2022/03/26 09:37:12;;;;;;;;;;;21.80;96.60;;;;;;5053758;28;20041;-79
2022/03/26 09:39:38;;;;;;;33.55;23.30;;;21.90;96.50;;;;;;5051395;28;19927;-79
2022/03/26 09:42:05;;;;;;;30.55;21.45;;;22.00;97.30;;;;;;5051790;28;20083;-79
2022/03/26 09:44:32;;;;;;;23.98;16.42;;;22.30;97.00;;;;;;5051517;28;20045;-79
2022/03/26 09:46:58;;;;;;;22.10;14.50;;;22.50;95.20;;;;;;5051723;28;20045;-79
2022/03/26 09:49:24;;;;;;;20.15;12.60;;;22.20;92.70;;;;;;5034648;28;20036;-78
2022/03/26 09:51:54;;;;;;;;;;;22.10;91.80;;;;;;5051646;28;20194;-78
2022/03/26 09:54:21;;;;;;;16.58;11.90;;;21.70;91.00;;;;;;5051599;28;19932;-78
2022/03/26 09:56:47;;;;;;;17.58;12.02;;;22.20;90.90;;;;;;5051379;28;20404;-78
2022/03/26 09:59:12;;;;;;;;;;;22.30;91.10;;;;;;5051881;28;20041;-78
2022/03/26 10:01:38;;;;;;;14.98;10.50;;;22.60;89.80;;;;;;5050886;28;19920;-79
2022/03/26 10:04:07;;;;;;;;;;;22.60;88.30;;;;;;5035321;28;20049;-78
2022/03/26 10:06:32;;;;;;;19.30;11.82;;;22.40;86.90;;;;;;5051281;28;19966;-78
2022/03/26 10:08:58;;;;;;;;;;;22.40;87.10;;;;;;5051894;28;20049;-78
2022/03/26 10:11:24;;;;;;;;;;;23.00;88.00;;;;;;5051843;28;20451;-78
2022/03/26 10:13:52;;;;;;;;;;;22.90;85.80;;;;;;5051144;28;19917;-78
2022/03/26 10:16:18;;;;;;;;;;;22.80;84.40;;;;;;5051997;28;19924;-78
2022/03/26 10:18:44;;;;;;;;;;;22.70;85.20;;;;;;5051393;28;19916;-78
2022/03/26 10:21:14;;;;;;;;;;;22.90;84.60;;;;;;5054561;28;20367;-77
2022/03/26 10:23:58;;;;;;;;;;;22.80;82.70;;;;;;5053840;28;19966;-78
2022/03/26 10:26:24;;;;;;;;;;;22.90;82.40;;;;;;5054590;28;20356;-78
2022/03/26 10:28:54;;;;;;;;;;;22.70;83.10;;;;;;5053976;28;19916;-78
2022/03/26 10:34:15;;;;;;;;;;;23.40;81.20;;;;;;5054214;28;19973;-78
2022/03/26 10:36:45;;;;;;;;;;;23.10;80.40;;;;;;5053630;28;19962;-78
2022/03/26 10:39:15;;;;;;;;;;;23.30;80.40;;;;;;5054459;28;19969;-78
2022/03/26 10:41:41;;;;;;;;;;;23.90;79.70;;;;;;5053855;28;19916;-78
2022/03/26 10:44:08;;;;;;;;;;;24.00;78.90;;;;;;5054525;28;20443;-78
2022/03/26 10:47:00;;;;;;;;;;;23.60;79.90;;;;;;5053670;28;19916;-78
2022/03/26 10:49:27;;;;;;;;;;;23.60;78.80;;;;;;5051703;28;20011;-78
2022/03/26 10:51:53;;;;;;;;;;;23.70;78.10;;;;;;5053635;28;19913;-78
2022/03/26 10:54:19;;;;;;;;;;;23.60;78.90;;;;;;5054538;28;20283;-78
2022/03/26 10:56:44;;;;;;;;;;;23.20;78.20;;;;;;5053628;28;19916;-78
2022/03/26 10:59:10;;;;;;;;;;;23.30;77.00;;;;;;5054248;28;19929;-78
2022/03/26 11:01:36;;;;;;;;;;;23.20;77.30;;;;;;5053362;28;19920;-79
2022/03/26 11:04:02;;;;;;;;;;;23.50;77.50;;;;;;5053885;28;19923;-78
2022/03/26 11:06:28;;;;;;;;;;;23.20;77.70;;;;;;5072011;28;20015;-78
2022/03/26 11:09:01;;;;;;;;;;;23.30;77.80;;;;;;5053467;28;19999;-78
2022/03/26 11:11:29;;;;;;;;;;;23.60;77.00;;;;;;5054124;28;19939;-78
2022/03/26 11:13:58;;;;;;;;;;;23.60;77.70;;;;;;5053492;28;20275;-78
2022/03/26 11:16:36;;;;;;;;;;;23.80;76.80;;;;;;5053481;28;19916;-78
2022/03/26 11:19:15;;;;;;;;;;;24.00;76.60;;;;;;5054073;28;20325;-78
2022/03/26 11:21:41;;;;;;;;;;;24.00;76.00;;;;;;5050967;28;20413;-77
2022/03/26 11:24:24;;;;;;;;;;;24.00;75.00;;;;;;5053742;28;19916;-78
2022/03/26 11:27:03;;;;;;;;;;;24.20;75.40;;;;;;5053057;28;20355;-77
2022/03/26 11:29:41;;;;;;;;;;;24.20;75.30;;;;;;5053816;28;19923;-78
2022/03/26 11:32:06;;;;;;;;;;;23.70;74.90;;;;;;5053463;28;19916;-78
2022/03/26 11:34:36;;;;;;;;;;;23.80;75.30;;;;;;5053382;28;19922;-78
2022/03/26 11:37:09;;;;;;;;;;;23.80;76.00;;;;;;5036951;28;19917;-77
2022/03/26 11:39:42;;;;;;;;;;;23.30;76.70;;;;;;5053108;28;19916;-77
2022/03/26 11:42:08;;;;;;;;;;;23.30;77.40;;;;;;5071281;28;19920;-77
2022/03/26 11:44:33;;;;;;;;;;;23.40;76.80;;;;;;5053006;28;19979;-77
2022/03/26 11:52:39;;;;;;;;;;;23.70;76.20;;;;;;5038852;28;20075;-78
2022/03/26 11:55:10;;;;;;;;;;;23.70;75.60;;;;;;5053080;28;20018;-77
2022/03/26 11:57:36;;;;;;;;;;;24.00;75.30;;;;;;5052995;28;19923;-77
2022/03/26 12:00:07;;;;;;;;;;;24.30;74.60;;;;;;5053881;28;19916;-76
2022/03/26 12:02:34;;;;;;;;;;;24.50;73.70;;;;;;5053352;28;19985;-77
2022/03/26 12:06:35;;;;;;;;;;;24.50;74.30;;;;;;5053406;28;19923;-76
2022/03/26 12:07:50;;;;;;;;;;;24.50;74.40;;;;;;5052676;28;19920;-77
2022/03/26 12:10:18;;;;;;;;;;;24.40;73.50;;;;;;5053306;28;20264;-77
2022/03/26 12:13:02;;;;;;;;;;;24.10;73.80;;;;;;5053817;28;19971;-76
2022/03/26 12:15:29;;;;;;;;;;;23.70;74.60;;;;;;5043014;28;19966;-77
2022/03/26 12:18:05;;;;;;;;;;;23.60;76.50;;;;;;5058922;28;20548;-77
2022/03/26 12:20:41;;;;;;;;;;;23.40;75.80;;;;;;5060151;28;20374;-77
2022/03/26 12:23:06;;;;;;;;;;;23.00;77.50;;;;;;5055703;28;20364;-77
2022/03/26 12:25:50;;;;;;;;;;;22.60;76.30;;;;;;5056102;28;19974;-77
2022/03/26 12:28:20;;;;;;;;;;;22.20;78.20;;;;;;5057388;28;19927;-77
2022/03/26 12:30:50;;;;;;;;;;;22.40;78.50;;;;;;5055857;28;19916;-77
2022/03/26 12:33:16;;;;;;;;;;;22.10;79.00;;;;;;5039256;28;20000;-78
2022/03/26 12:35:42;;;;;;;;;;;22.10;80.80;;;;;;5055173;28;19928;-77
2022/03/26 12:38:08;;;;;;;;;;;22.10;80.70;;;;;;5055939;28;19921;-77
2022/03/26 12:40:34;;;;;;;;;;;21.90;80.80;;;;;;5056501;28;20417;-78
2022/03/26 12:43:00;;;;;;;;;;;21.90;82.00;;;;;;5055762;28;20367;-77
2022/03/26 12:45:29;;;;;;;;;;;21.10;83.80;;;;;;5055967;28;19917;-77
2022/03/26 12:47:54;;;;;;;;;;;20.90;85.70;;;;;;5055257;28;20015;-78
2022/03/26 12:50:21;;;;;;;;;;;20.70;85.90;;;;;;5056200;28;20046;-77
2022/03/26 12:52:47;;;;;;;;;;;20.50;84.80;;;;;;5055374;28;19916;-77
2022/03/26 12:55:12;;;;;;;;;;;20.20;86.90;;;;;;5039539;28;19917;-77
2022/03/26 13:00:27;;;;;;;;;;;20.40;86.70;;;;;;5056245;28;20421;-77
2022/03/26 13:03:05;;;;;;;;;;;20.30;88.40;;;;;;5038897;28;19917;-78